Terminal Aerodrome Forecast
Issued by NWS Twin Cities, MN

Home | Current Version | Previous Version | Text Only | Print | Product List | Glossary Off
Versions: 1 2 3 4 5 6 7 8 9 10 11 12 13 14 15 16

842
FTUS43 KMPX 272323
TAFSTC
TAF
KSTC 272323Z 2800/2824 10006KT 3SM -SHRA BR BKN009 OVC020
     FM280300 VRB03KT 2SM BR OVC009
     FM281100 02004KT 4SM BR OVC008
     FM281400 36003KT 5SM -DZ BR OVC015 PROB30 2818/2822 4SM -SHRA
      BR BKN015=

USA.gov is the U.S. government's official web portal to all federal, state and local government web resources and services.